Time;durP1;ratioP1;P1;durP2;ratioP2;P2;SDS_P1;SDS_P2;PMS_P1;PMS_P2;Temp;Humidity;BMP_temperature;BMP_pressure;BME280_temperature;BME280_humidity;BME280_pressure;Samples;Min_cycle;Max_cycle;Signal;HPM_P1;HPM_P2
2024/03/18 00:00:23;;;;;;;21.00;3.50;;;8.00;98.80;;;;;;5061572;28;20251;-83
2024/03/18 00:02:52;;;;;;;10.32;2.45;;;8.00;98.70;;;;;;5054532;28;20208;-83
2024/03/18 00:05:21;;;;;;;9.65;2.13;;;8.00;98.70;;;;;;5063049;28;20242;-83
2024/03/18 00:07:50;;;;;;;9.65;2.75;;;8.00;98.80;;;;;;5061829;28;20235;-83
2024/03/18 00:10:18;;;;;;;17.23;2.72;;;8.00;98.90;;;;;;5062367;28;20303;-84
2024/03/18 00:12:46;;;;;;;9.10;2.25;;;8.00;98.90;;;;;;5053186;28;20230;-83
2024/03/18 00:15:17;;;;;;;7.60;2.10;;;8.00;98.90;;;;;;5056662;28;20200;-83
2024/03/18 00:17:44;;;;;;;5.55;2.30;;;8.00;98.90;;;;;;5063300;28;20228;-83
2024/03/18 00:20:12;;;;;;;7.68;2.67;;;8.00;98.90;;;;;;5063743;28;20211;-83
2024/03/18 00:22:39;;;;;;;10.20;3.63;;;7.90;99.00;;;;;;5072790;28;20204;-82
2024/03/18 00:25:07;;;;;;;6.28;2.58;;;8.00;99.00;;;;;;5063357;28;20235;-82
2024/03/18 00:27:36;;;;;;;6.63;2.13;;;8.00;99.00;;;;;;5072772;28;20287;-83
2024/03/18 00:30:06;;;;;;;7.13;2.63;;;8.00;99.10;;;;;;5061727;28;20251;-83
2024/03/18 00:32:34;;;;;;;8.18;3.30;;;7.90;99.20;;;;;;5070825;28;20200;-83
2024/03/18 00:35:01;;;;;;;13.75;3.58;;;7.90;99.30;;;;;;5069935;28;20208;-81
2024/03/18 00:37:28;;;;;;;6.30;3.00;;;7.90;99.40;;;;;;5072159;28;20254;-82
2024/03/18 00:39:58;;;;;;;6.25;2.80;;;7.90;99.50;;;;;;5065697;28;20234;-82
2024/03/18 00:42:24;;;;;;;7.28;2.72;;;7.90;99.50;;;;;;5061127;28;20200;-82
2024/03/18 00:44:53;;;;;;;6.07;2.20;;;7.80;99.50;;;;;;5071461;28;20253;-82
2024/03/18 00:47:23;;;;;;;21.80;3.10;;;7.80;99.50;;;;;;5062177;28;20449;-82
2024/03/18 00:49:50;;;;;;;2.95;2.05;;;7.80;99.60;;;;;;5070914;28;20221;-82
2024/03/18 00:52:17;;;;;;;8.52;2.17;;;7.80;99.60;;;;;;5071144;28;20290;-83
2024/03/18 00:54:44;;;;;;;9.70;2.90;;;7.90;99.60;;;;;;5071677;28;20200;-85
2024/03/18 00:57:11;;;;;;;13.02;3.33;;;7.80;99.60;;;;;;5066130;28;20204;-83
2024/03/18 00:59:39;;;;;;;7.03;2.63;;;7.80;99.60;;;;;;5064694;28;20204;-84
2024/03/18 01:02:06;;;;;;;8.25;2.05;;;7.80;99.50;;;;;;5059877;28;20231;-83
2024/03/18 01:04:34;;;;;;;4.82;1.80;;;7.80;99.60;;;;;;5059457;28;20258;-83
2024/03/18 01:07:02;;;;;;;9.02;2.10;;;7.80;99.50;;;;;;5061720;28;20204;-84
2024/03/18 01:09:29;;;;;;;10.68;3.92;;;7.80;99.30;;;;;;5055135;28;20235;-82
2024/03/18 01:11:56;;;;;;;8.93;2.20;;;7.80;99.30;;;;;;5051157;28;20196;-83
2024/03/18 01:14:24;;;;;;;3.80;2.15;;;7.80;99.30;;;;;;5058146;28;20231;-83
2024/03/18 01:16:51;;;;;;;8.15;1.88;;;7.80;99.40;;;;;;5048090;28;20351;-82
2024/03/18 01:19:19;;;;;;;7.53;2.92;;;7.80;99.30;;;;;;5056699;28;20325;-83
2024/03/18 01:21:48;;;;;;;5.72;1.95;;;7.80;99.40;;;;;;5052787;28;20260;-83
2024/03/18 01:24:15;;;;;;;7.68;1.88;;;7.70;99.40;;;;;;5058665;28;20216;-83
2024/03/18 01:26:44;;;;;;;4.35;2.03;;;7.80;99.50;;;;;;5063800;28;20207;-82
2024/03/18 01:29:11;;;;;;;4.38;2.40;;;7.80;99.50;;;;;;5060281;28;20227;-83
2024/03/18 01:31:37;;;;;;;10.55;2.83;;;7.80;99.50;;;;;;5065066;28;20217;-81
2024/03/18 01:34:09;;;;;;;11.93;2.75;;;7.80;99.50;;;;;;5078149;28;20204;-83
2024/03/18 01:36:36;;;;;;;9.52;2.00;;;7.80;99.40;;;;;;5069500;28;20201;-82
2024/03/18 01:39:04;;;;;;;10.73;2.38;;;8.00;99.60;;;;;;5065402;28;20216;-82
2024/03/18 01:41:33;;;;;;;7.03;2.28;;;7.70;99.40;;;;;;5070642;28;20205;-81
2024/03/18 01:44:01;;;;;;;9.32;2.33;;;7.80;99.50;;;;;;5060311;28;20181;-81
2024/03/18 01:46:28;;;;;;;5.25;1.75;;;7.80;99.40;;;;;;5070251;28;20226;-83
2024/03/18 01:48:55;;;;;;;9.05;2.30;;;7.70;99.50;;;;;;5070249;28;20250;-82
2024/03/18 01:51:22;;;;;;;3.70;1.52;;;7.70;99.50;;;;;;5070690;28;20210;-82
2024/03/18 01:53:50;;;;;;;5.47;2.33;;;7.70;99.40;;;;;;5060135;28;20195;-83
2024/03/18 01:56:18;;;;;;;8.73;3.65;;;7.60;99.50;;;;;;5058580;28;20185;-82
2024/03/18 01:58:49;;;;;;;5.90;1.83;;;7.60;99.70;;;;;;5076845;28;20216;-81
2024/03/18 02:01:17;;;;;;;19.70;2.40;;;7.70;99.70;;;;;;5072364;28;20229;-83
2024/03/18 02:03:45;;;;;;;9.07;2.85;;;7.70;99.60;;;;;;5075901;28;20206;-81
2024/03/18 02:06:12;;;;;;;6.88;2.95;;;7.60;99.60;;;;;;5078042;28;20189;-81
2024/03/18 02:08:38;;;;;;;9.38;2.10;;;7.60;99.60;;;;;;5068513;28;20224;-81
2024/03/18 02:11:05;;;;;;;9.18;2.25;;;7.60;99.60;;;;;;5075534;28;20219;-81
2024/03/18 02:13:34;;;;;;;6.55;2.50;;;7.60;99.80;;;;;;5073644;28;20204;-81
2024/03/18 02:16:01;;;;;;;7.00;2.40;;;7.50;99.80;;;;;;5067010;28;20601;-82
2024/03/18 02:18:28;;;;;;;5.70;2.25;;;7.50;99.80;;;;;;5064525;28;20681;-84
2024/03/18 02:20:56;;;;;;;4.68;2.15;;;7.50;99.80;;;;;;5062934;28;20207;-84
2024/03/18 02:23:28;;;;;;;7.20;2.30;;;7.50;99.70;;;;;;5056876;28;20576;-83
2024/03/18 02:25:55;;;;;;;8.32;2.05;;;7.50;99.80;;;;;;5056530;28;20292;-84
2024/03/18 02:28:21;;;;;;;3.45;2.03;;;7.50;99.90;;;;;;5047421;28;20255;-81
2024/03/18 02:30:49;;;;;;;6.95;2.03;;;7.60;99.80;;;;;;5064268;28;20247;-84
2024/03/18 02:33:16;;;;;;;7.93;2.60;;;7.50;99.90;;;;;;5063828;28;20196;-82
2024/03/18 02:35:43;;;;;;;5.43;2.13;;;7.70;99.90;;;;;;5063167;28;20228;-82
2024/03/18 02:38:10;;;;;;;5.65;2.40;;;7.50;99.90;;;;;;5061506;28;20340;-82
2024/03/18 02:40:38;;;;;;;8.00;2.40;;;7.50;99.90;;;;;;5053390;28;20208;-82
2024/03/18 02:43:05;;;;;;;9.32;2.55;;;7.50;99.90;;;;;;5059799;28;20207;-83
2024/03/18 02:45:32;;;;;;;4.90;1.90;;;7.40;99.90;;;;;;5059858;28;20204;-82
2024/03/18 02:47:59;;;;;;;5.20;2.10;;;7.40;99.90;;;;;;5055843;28;20224;-84
2024/03/18 02:50:26;;;;;;;5.70;2.30;;;7.50;99.90;;;;;;5062069;28;20237;-83
2024/03/18 02:52:53;;;;;;;8.63;2.67;;;7.40;99.90;;;;;;5069012;28;20230;-83
2024/03/18 02:55:20;;;;;;;5.10;2.33;;;7.40;99.90;;;;;;5069144;28;20208;-82
2024/03/18 02:57:48;;;;;;;9.80;1.90;;;7.40;99.90;;;;;;5066161;28;20220;-82
2024/03/18 03:00:16;;;;;;;3.50;1.85;;;7.50;99.90;;;;;;5068262;28;20208;-84
2024/03/18 03:02:43;;;;;;;7.65;1.60;;;7.40;99.90;;;;;;5061343;28;20282;-83
2024/03/18 03:05:10;;;;;;;8.38;2.33;;;7.40;99.90;;;;;;5069921;28;20230;-84
2024/03/18 03:07:37;;;;;;;4.65;1.80;;;7.40;99.90;;;;;;5068904;28;20244;-82
2024/03/18 03:10:05;;;;;;;8.23;2.20;;;7.40;99.90;;;;;;5068964;28;20234;-82
2024/03/18 03:12:32;;;;;;;6.97;1.98;;;7.40;99.90;;;;;;5069332;28;20223;-82
2024/03/18 03:15:01;;;;;;;5.32;2.47;;;7.40;99.90;;;;;;5061545;28;20227;-83
2024/03/18 03:17:28;;;;;;;8.52;2.63;;;7.30;99.90;;;;;;5069422;28;20224;-83
2024/03/18 03:19:55;;;;;;;4.65;2.40;;;7.40;99.90;;;;;;5067237;28;20258;-81
2024/03/18 03:22:22;;;;;;;5.28;3.20;;;7.30;99.90;;;;;;5067784;28;20238;-83
2024/03/18 03:24:50;;;;;;;9.27;3.00;;;7.30;99.90;;;;;;5069162;28;20204;-85
2024/03/18 03:27:17;;;;;;;4.93;1.95;;;7.30;99.90;;;;;;5064415;28;20624;-81
2024/03/18 03:29:44;;;;;;;4.00;2.20;;;7.30;99.90;;;;;;5069393;28;20208;-81
2024/03/18 03:32:15;;;;;;;3.80;1.85;;;7.30;99.90;;;;;;5067219;28;20235;-82
2024/03/18 03:34:42;;;;;;;4.40;2.75;;;7.20;99.90;;;;;;5072469;28;20222;-83
2024/03/18 03:37:09;;;;;;;6.45;2.17;;;7.30;99.90;;;;;;5073272;28;20204;-83
2024/03/18 03:39:36;;;;;;;11.18;2.33;;;7.20;99.90;;;;;;5073791;28;20212;-81
2024/03/18 03:42:04;;;;;;;8.45;2.67;;;7.20;99.90;;;;;;5071564;28;20209;-82
2024/03/18 03:44:31;;;;;;;8.43;2.20;;;7.30;99.90;;;;;;5070653;28;20196;-81
2024/03/18 03:46:59;;;;;;;3.75;1.83;;;7.10;99.90;;;;;;5062451;28;20208;-83
2024/03/18 03:49:28;;;;;;;7.07;1.75;;;7.10;99.90;;;;;;5069880;28;20224;-82
2024/03/18 03:51:55;;;;;;;3.30;1.70;;;7.10;99.90;;;;;;5076376;28;20527;-83
2024/03/18 03:54:24;;;;;;;7.03;2.30;;;7.20;99.90;;;;;;5070807;28;20196;-84
2024/03/18 03:56:51;;;;;;;6.20;2.50;;;7.10;99.90;;;;;;5067169;28;20200;-83
2024/03/18 03:59:18;;;;;;;10.30;2.13;;;7.10;99.90;;;;;;5067817;28;20229;-82
2024/03/18 04:01:46;;;;;;;8.18;1.98;;;7.00;99.90;;;;;;5063459;28;20272;-83
2024/03/18 04:04:13;;;;;;;5.78;2.05;;;7.10;99.90;;;;;;5071116;28;20204;-82
2024/03/18 04:06:41;;;;;;;3.80;2.40;;;7.00;99.90;;;;;;5073965;28;20204;-82
2024/03/18 04:09:10;;;;;;;9.07;2.70;;;7.00;99.90;;;;;;5071716;28;20721;-83
2024/03/18 04:11:37;;;;;;;5.47;2.20;;;7.10;99.90;;;;;;5069392;28;20224;-82
2024/03/18 04:14:05;;;;;;;1.67;1.35;;;7.00;99.90;;;;;;5073156;28;20642;-83
2024/03/18 04:16:33;;;;;;;5.18;1.77;;;7.00;99.90;;;;;;5068204;28;20209;-83
2024/03/18 04:19:00;;;;;;;5.30;1.70;;;6.90;99.90;;;;;;5063501;28;20226;-83
2024/03/18 04:21:29;;;;;;;8.65;2.67;;;7.00;99.90;;;;;;5068427;28;20200;-81
2024/03/18 04:23:57;;;;;;;4.60;2.60;;;7.00;99.90;;;;;;5072388;28;20208;-83
2024/03/18 04:26:24;;;;;;;7.47;2.78;;;7.10;99.90;;;;;;5069213;28;20200;-83
2024/03/18 04:28:52;;;;;;;4.28;2.53;;;7.00;99.90;;;;;;5070017;28;20301;-83
2024/03/18 04:31:20;;;;;;;3.70;2.72;;;6.90;99.90;;;;;;5062695;28;20219;-83
2024/03/18 04:33:47;;;;;;;7.70;2.00;;;6.90;99.90;;;;;;5064867;28;20207;-84
2024/03/18 04:36:15;;;;;;;9.02;2.20;;;6.90;99.90;;;;;;5052835;28;20201;-83
2024/03/18 04:38:42;;;;;;;7.85;2.70;;;6.90;99.90;;;;;;5055233;28;20243;-83
2024/03/18 04:41:10;;;;;;;5.95;2.63;;;6.90;99.90;;;;;;5064074;28;20282;-83
2024/03/18 04:43:38;;;;;;;6.32;3.17;;;6.90;99.90;;;;;;5063661;28;20200;-83
2024/03/18 04:46:05;;;;;;;9.15;2.67;;;6.90;99.90;;;;;;5063481;28;20653;-85
2024/03/18 04:48:32;;;;;;;3.78;2.15;;;7.00;99.90;;;;;;5055781;28;20643;-84
2024/03/18 04:50:59;;;;;;;4.30;1.95;;;6.90;99.90;;;;;;5052685;28;20239;-84
2024/03/18 04:53:26;;;;;;;4.35;2.13;;;6.90;99.90;;;;;;5061389;28;20227;-83
2024/03/18 04:55:53;;;;;;;5.35;2.20;;;6.90;99.90;;;;;;5059942;28;20204;-85
2024/03/18 04:58:21;;;;;;;4.78;2.40;;;7.00;99.90;;;;;;5060052;28;20224;-83
2024/03/18 05:00:48;;;;;;;7.32;2.90;;;6.80;99.90;;;;;;5062278;28;20605;-84
2024/03/18 05:03:15;;;;;;;4.70;2.50;;;6.70;99.90;;;;;;5064173;28;20235;-83
2024/03/18 05:05:42;;;;;;;6.00;2.15;;;6.80;99.90;;;;;;5065265;28;20250;-84
2024/03/18 05:08:09;;;;;;;4.80;2.92;;;6.90;99.90;;;;;;5061052;28;20235;-82
2024/03/18 05:10:36;;;;;;;4.70;2.08;;;6.80;99.90;;;;;;5059661;28;20582;-84
2024/03/18 05:13:05;;;;;;;7.07;2.80;;;7.00;99.90;;;;;;5049263;28;20212;-84
2024/03/18 05:15:33;;;;;;;12.32;3.38;;;6.90;99.90;;;;;;5045452;28;20659;-84
2024/03/18 05:18:00;;;;;;;8.80;3.30;;;6.80;99.90;;;;;;5063742;28;20223;-83
2024/03/18 05:20:27;;;;;;;8.13;3.47;;;6.80;99.90;;;;;;5057145;28;20208;-83
2024/03/18 05:22:54;;;;;;;8.32;2.97;;;6.90;99.90;;;;;;5067641;28;20250;-83
2024/03/18 05:25:21;;;;;;;7.95;3.78;;;6.80;99.90;;;;;;5065052;28;20250;-83
2024/03/18 05:27:48;;;;;;;9.02;2.80;;;6.80;99.90;;;;;;5061898;28;20224;-83
2024/03/18 05:30:15;;;;;;;10.80;2.95;;;6.70;99.90;;;;;;5062127;28;20200;-82
2024/03/18 05:32:44;;;;;;;5.22;2.72;;;6.70;99.90;;;;;;5062690;28;20248;-83
2024/03/18 05:35:12;;;;;;;7.40;2.50;;;6.70;99.90;;;;;;5063659;28;20723;-85
2024/03/18 05:37:39;;;;;;;6.63;2.92;;;6.70;99.90;;;;;;5064532;28;20224;-81
2024/03/18 05:40:08;;;;;;;5.03;2.60;;;6.70;99.90;;;;;;5059727;28;20255;-84
2024/03/18 05:42:36;;;;;;;4.47;2.45;;;6.70;99.90;;;;;;5057600;28;20193;-84
2024/03/18 05:45:03;;;;;;;6.78;3.25;;;6.70;99.90;;;;;;5070537;28;20258;-83
2024/03/18 05:47:30;;;;;;;9.43;3.28;;;6.70;99.90;;;;;;5071603;28;20232;-83
2024/03/18 05:49:59;;;;;;;7.38;2.20;;;6.60;99.90;;;;;;5074786;28;20254;-86
2024/03/18 05:52:26;;;;;;;4.97;2.85;;;6.70;99.90;;;;;;5075303;28;20223;-82
2024/03/18 05:54:53;;;;;;;14.88;3.85;;;6.70;99.90;;;;;;5069473;28;20234;-83
2024/03/18 05:57:23;;;;;;;7.72;3.63;;;6.70;99.90;;;;;;5071050;28;20201;-84
2024/03/18 05:59:50;;;;;;;8.30;2.90;;;6.70;99.90;;;;;;5075041;28;20192;-84
2024/03/18 06:02:18;;;;;;;7.10;3.20;;;6.70;99.90;;;;;;5074002;28;20195;-81
2024/03/18 06:04:45;;;;;;;5.43;2.60;;;6.60;99.90;;;;;;5074036;28;20243;-83
2024/03/18 06:07:19;;;;;;;8.00;4.10;;;6.80;99.90;;;;;;5069579;28;20208;-81
2024/03/18 06:09:46;;;;;;;8.27;3.60;;;6.80;99.90;;;;;;5069195;28;20258;-82
2024/03/18 06:12:13;;;;;;;7.03;2.80;;;6.70;99.90;;;;;;5063816;28;20235;-81
2024/03/18 06:14:40;;;;;;;9.35;2.08;;;6.80;99.90;;;;;;5073780;28;20207;-80
2024/03/18 06:17:07;;;;;;;7.45;3.67;;;6.90;99.90;;;;;;5072278;28;20204;-83
2024/03/18 06:19:35;;;;;;;6.85;3.25;;;6.80;99.90;;;;;;5068026;28;20208;-82
2024/03/18 06:22:05;;;;;;;12.30;3.03;;;6.80;99.90;;;;;;5062652;28;20237;-83
2024/03/18 06:27:15;;;;;;;4.60;2.90;;;6.90;99.90;;;;;;5052306;28;20205;-82
2024/03/18 06:29:42;;;;;;;6.45;3.38;;;6.90;99.90;;;;;;5058227;28;20210;-82
2024/03/18 06:32:10;;;;;;;6.90;3.00;;;6.90;99.90;;;;;;5061518;28;20227;-82
2024/03/18 06:34:37;;;;;;;9.52;2.60;;;6.90;99.90;;;;;;5059168;28;20287;-84
2024/03/18 06:37:04;;;;;;;8.23;3.55;;;6.90;99.90;;;;;;5053029;28;20303;-82
2024/03/18 06:39:31;;;;;;;8.30;3.20;;;6.90;99.90;;;;;;5058855;28;20196;-82
2024/03/18 06:41:59;;;;;;;5.55;3.30;;;6.90;99.90;;;;;;5061062;28;20215;-84
2024/03/18 06:44:27;;;;;;;7.00;3.10;;;7.00;99.90;;;;;;5059818;28;20254;-82
2024/03/18 06:46:54;;;;;;;5.50;3.45;;;7.00;99.90;;;;;;5055955;28;20204;-84
2024/03/18 06:49:20;;;;;;;9.98;3.15;;;7.00;99.90;;;;;;5059893;28;20567;-85
2024/03/18 06:51:48;;;;;;;7.75;3.05;;;7.10;99.90;;;;;;5059964;28;20319;-84
2024/03/18 06:54:15;;;;;;;6.03;2.72;;;6.90;99.90;;;;;;5059463;28;20197;-82
2024/03/18 06:56:42;;;;;;;8.93;4.00;;;6.90;99.90;;;;;;5068105;28;20234;-83
2024/03/18 06:59:10;;;;;;;9.32;4.20;;;6.90;99.90;;;;;;5071013;28;20253;-82
2024/03/18 07:01:37;;;;;;;7.07;3.65;;;6.80;99.90;;;;;;5050180;28;20200;-85
2024/03/18 07:04:05;;;;;;;7.53;2.95;;;6.80;99.90;;;;;;5071211;28;20188;-82
2024/03/18 07:06:33;;;;;;;6.82;3.47;;;6.90;99.90;;;;;;5082388;28;20314;-83
2024/03/18 07:09:00;;;;;;;13.25;4.20;;;6.90;99.90;;;;;;5064551;28;20246;-83
2024/03/18 07:11:27;;;;;;;4.55;3.20;;;7.00;99.90;;;;;;5074245;28;20212;-82
2024/03/18 07:13:54;;;;;;;6.55;3.38;;;6.90;99.90;;;;;;5077532;28;20184;-82
2024/03/18 07:16:23;;;;;;;8.85;3.15;;;6.90;99.90;;;;;;5082019;28;20204;-81
2024/03/18 07:18:54;;;;;;;5.32;3.00;;;6.90;99.90;;;;;;5080790;28;20208;-84
2024/03/18 07:21:22;;;;;;;10.82;4.75;;;6.90;99.90;;;;;;5080026;28;20195;-82
2024/03/18 07:23:49;;;;;;;7.75;4.68;;;7.00;99.90;;;;;;5067770;28;20247;-83
2024/03/18 07:26:16;;;;;;;8.80;3.08;;;7.20;99.90;;;;;;5071452;28;20238;-82
2024/03/18 07:28:43;;;;;;;9.20;3.97;;;7.40;99.90;;;;;;5080777;28;20203;-83
2024/03/18 07:31:13;;;;;;;9.30;3.95;;;7.40;99.90;;;;;;5079884;28;20211;-83
2024/03/18 07:33:42;;;;;;;5.38;2.70;;;7.60;99.90;;;;;;5061883;28;20242;-84
2024/03/18 07:36:09;;;;;;;11.82;4.05;;;7.60;99.90;;;;;;5062406;28;20216;-85
2024/03/18 07:38:36;;;;;;;41.00;9.70;;;7.60;99.90;;;;;;5080514;28;20212;-84
2024/03/18 07:41:05;;;;;;;5.90;3.67;;;7.70;99.90;;;;;;5077479;28;20177;-85
2024/03/18 07:43:32;;;;;;;6.57;3.83;;;7.80;99.90;;;;;;5073635;28;20215;-86
2024/03/18 07:45:59;;;;;;;12.13;4.32;;;7.90;99.90;;;;;;5069059;28;20225;-82
2024/03/18 07:48:26;;;;;;;8.93;3.47;;;7.90;99.90;;;;;;5055312;28;20217;-83
2024/03/18 07:50:58;;;;;;;7.40;3.45;;;7.90;99.90;;;;;;5054573;28;20268;-83
2024/03/18 07:53:25;;;;;;;6.75;2.90;;;7.90;99.90;;;;;;5056992;28;20224;-83
2024/03/18 07:56:00;;;;;;;5.70;3.95;;;8.00;99.90;;;;;;5056172;28;20209;-83
2024/03/18 07:58:27;;;;;;;13.27;4.65;;;8.10;99.90;;;;;;5055451;28;20216;-82
2024/03/18 08:00:55;;;;;;;10.70;5.57;;;8.30;99.90;;;;;;5056057;28;20200;-83
2024/03/18 08:03:22;;;;;;;6.20;3.70;;;8.40;99.90;;;;;;5041017;28;20201;-84
2024/03/18 08:05:49;;;;;;;7.82;3.90;;;8.40;99.90;;;;;;5046583;28;20216;-82
2024/03/18 08:08:17;;;;;;;12.57;4.03;;;8.20;99.90;;;;;;5053932;28;20216;-84
2024/03/18 08:10:45;;;;;;;7.82;3.63;;;8.30;99.90;;;;;;5049179;28;20220;-83
2024/03/18 08:13:12;;;;;;;8.75;4.10;;;8.30;99.90;;;;;;5051383;28;20220;-83
2024/03/18 08:15:44;;;;;;;9.18;4.93;;;8.30;99.90;;;;;;5039899;28;20266;-82
2024/03/18 08:18:11;;;;;;;14.35;4.90;;;8.30;99.90;;;;;;5041656;28;20223;-82
2024/03/18 08:20:38;;;;;;;5.88;4.88;;;8.30;99.90;;;;;;5039089;28;20198;-83
2024/03/18 08:23:06;;;;;;;12.57;5.32;;;8.40;99.90;;;;;;5040266;28;20197;-81
2024/03/18 08:25:34;;;;;;;8.48;4.93;;;8.40;99.90;;;;;;5051233;28;20191;-85
2024/03/18 08:28:01;;;;;;;5.38;3.65;;;8.50;99.90;;;;;;5053504;28;20221;-83
2024/03/18 08:30:28;;;;;;;7.80;4.00;;;8.60;99.90;;;;;;5054266;28;20201;-84
2024/03/18 08:32:55;;;;;;;7.95;3.58;;;8.50;99.90;;;;;;5053220;28;20286;-80
2024/03/18 08:35:22;;;;;;;7.70;4.30;;;8.40;99.90;;;;;;5047311;28;20201;-82
2024/03/18 08:37:49;;;;;;;6.75;4.38;;;8.60;99.90;;;;;;5049532;28;20221;-80
2024/03/18 08:40:16;;;;;;;8.23;4.45;;;8.40;99.90;;;;;;5033546;28;20208;-84
2024/03/18 08:42:44;;;;;;;5.50;3.45;;;8.50;99.90;;;;;;5036120;28;20233;-83
2024/03/18 08:45:13;;;;;;;10.07;5.15;;;8.50;99.90;;;;;;5049647;28;20205;-84
2024/03/18 08:47:40;;;;;;;6.45;3.70;;;8.30;99.90;;;;;;5066776;28;20231;-83
2024/03/18 08:50:08;;;;;;;12.55;4.70;;;8.40;99.90;;;;;;5070677;28;20223;-82
2024/03/18 08:52:37;;;;;;;9.60;5.35;;;8.40;99.90;;;;;;5072273;28;20224;-81
2024/03/18 08:55:04;;;;;;;6.53;3.95;;;8.40;99.90;;;;;;5069924;28;20200;-82
2024/03/18 08:57:31;;;;;;;8.70;3.55;;;8.40;99.90;;;;;;5061646;28;20235;-81
2024/03/18 08:59:59;;;;;;;8.85;4.25;;;8.40;99.90;;;;;;5056221;28;20231;-83
2024/03/18 09:02:27;;;;;;;9.23;4.72;;;8.40;99.90;;;;;;5067532;28;20188;-83
2024/03/18 09:04:54;;;;;;;6.22;4.22;;;8.30;99.90;;;;;;5071493;28;20234;-83
2024/03/18 09:07:21;;;;;;;12.63;4.82;;;8.30;99.90;;;;;;5065877;28;20215;-85
2024/03/18 09:09:47;;;;;;;6.03;4.38;;;8.40;99.90;;;;;;5059115;28;20529;-84
2024/03/18 09:12:14;;;;;;;5.18;4.30;;;8.40;99.90;;;;;;5061698;28;20227;-82
2024/03/18 09:14:41;;;;;;;7.07;4.60;;;8.40;99.90;;;;;;5067224;28;20222;-82
2024/03/18 09:17:10;;;;;;;8.85;7.53;;;8.40;99.90;;;;;;5053314;28;20211;-83
2024/03/18 09:19:40;;;;;;;6.55;3.72;;;8.30;99.90;;;;;;5066028;28;20200;-84
2024/03/18 09:22:08;;;;;;;8.50;4.95;;;8.40;99.90;;;;;;5064859;28;20200;-83
2024/03/18 09:24:35;;;;;;;15.25;5.95;;;8.40;99.90;;;;;;5059467;28;20284;-84
2024/03/18 09:27:05;;;;;;;9.40;5.40;;;8.30;99.90;;;;;;5053009;28;20216;-82
2024/03/18 09:29:32;;;;;;;7.90;4.78;;;8.30;99.90;;;;;;5059376;28;20563;-84
2024/03/18 09:31:59;;;;;;;7.93;4.97;;;8.30;99.90;;;;;;5052153;28;20201;-82
2024/03/18 09:34:27;;;;;;;10.02;6.75;;;8.50;99.90;;;;;;5067274;28;20224;-82
2024/03/18 09:36:54;;;;;;;7.53;4.57;;;8.50;99.90;;;;;;5062383;28;20204;-82
2024/03/18 09:39:21;;;;;;;9.38;4.88;;;8.60;99.90;;;;;;5064569;28;20220;-83
2024/03/18 09:41:53;;;;;;;11.70;5.20;;;8.70;99.90;;;;;;5060512;28;20640;-85
2024/03/18 09:44:20;;;;;;;6.70;4.53;;;8.70;99.90;;;;;;5056977;28;20702;-82
2024/03/18 09:46:48;;;;;;;7.93;5.25;;;8.80;99.90;;;;;;5066869;28;20209;-83
2024/03/18 09:49:17;;;;;;;8.50;5.28;;;8.90;99.90;;;;;;5068304;28;20224;-82
2024/03/18 09:51:46;;;;;;;10.57;5.55;;;9.10;99.90;;;;;;5059368;28;20307;-82
2024/03/18 09:54:17;;;;;;;7.50;5.40;;;9.00;99.90;;;;;;5067663;28;20251;-83
2024/03/18 09:56:46;;;;;;;5.57;4.13;;;8.90;99.90;;;;;;5066827;28;20200;-83
2024/03/18 09:59:13;;;;;;;8.63;4.93;;;9.10;99.90;;;;;;5067597;28;20248;-80
2024/03/18 10:01:40;;;;;;;9.20;5.43;;;9.20;99.90;;;;;;5066006;28;20204;-81
2024/03/18 10:04:07;;;;;;;9.20;6.15;;;9.50;99.90;;;;;;5062356;28;20642;-81
2024/03/18 10:06:34;;;;;;;12.45;5.55;;;9.50;99.90;;;;;;5071988;28;20216;-80
2024/03/18 10:09:03;;;;;;;7.40;5.65;;;9.60;99.90;;;;;;5058205;28;20323;-82
2024/03/18 10:11:30;;;;;;;15.35;5.75;;;9.70;99.90;;;;;;5064301;28;20238;-83
2024/03/18 10:13:57;;;;;;;7.20;5.10;;;9.70;99.90;;;;;;5060194;28;20220;-82
2024/03/18 10:16:24;;;;;;;8.55;5.57;;;9.60;99.90;;;;;;5066920;28;20257;-82
2024/03/18 10:18:52;;;;;;;7.68;4.65;;;9.70;99.90;;;;;;5058934;28;20232;-83
2024/03/18 10:21:18;;;;;;;9.07;5.03;;;9.80;99.90;;;;;;5060677;28;20192;-81
2024/03/18 10:23:53;;;;;;;10.10;5.55;;;9.90;99.90;;;;;;5065491;28;20219;-81
2024/03/18 10:26:21;;;;;;;8.80;6.38;;;10.00;99.90;;;;;;5055395;28;20208;-80
2024/03/18 10:28:48;;;;;;;7.47;5.30;;;10.20;99.90;;;;;;5064592;28;20315;-82
2024/03/18 10:31:17;;;;;;;8.23;6.07;;;10.30;99.90;;;;;;5063494;28;20214;-82
2024/03/18 10:33:46;;;;;;;11.60;5.68;;;10.50;99.90;;;;;;5062876;28;20283;-82
2024/03/18 10:36:18;;;;;;;8.38;5.30;;;10.60;99.60;;;;;;5062194;28;20300;-80
2024/03/18 10:38:56;;;;;;;5.95;4.90;;;10.70;99.40;;;;;;5072180;28;20251;-82
2024/03/18 10:41:25;;;;;;;16.38;6.45;;;11.00;99.00;;;;;;5066726;28;20214;-82
2024/03/18 10:43:55;;;;;;;8.43;4.50;;;11.10;98.90;;;;;;5069767;28;20208;-82
2024/03/18 10:46:24;;;;;;;6.28;5.00;;;11.00;98.70;;;;;;5069768;28;20198;-81
2024/03/18 10:48:51;;;;;;;9.90;6.28;;;11.20;98.70;;;;;;5068889;28;20228;-81
2024/03/18 10:51:19;;;;;;;12.23;6.35;;;11.40;98.60;;;;;;5068074;28;20204;-82
2024/03/18 10:53:47;;;;;;;8.10;5.28;;;11.60;98.10;;;;;;5055507;28;20223;-82
2024/03/18 10:56:15;;;;;;;11.75;5.75;;;12.00;97.60;;;;;;5057583;28;20200;-83
2024/03/18 10:58:43;;;;;;;10.35;5.90;;;12.10;97.10;;;;;;5066242;28;20309;-83
2024/03/18 11:01:11;;;;;;;9.65;5.40;;;12.00;96.90;;;;;;5065398;28;20204;-82
2024/03/18 11:03:44;;;;;;;12.65;7.10;;;11.90;96.90;;;;;;5066410;28;20263;-82
2024/03/18 11:06:15;;;;;;;7.30;5.38;;;11.80;97.10;;;;;;5058087;28;20267;-82
2024/03/18 11:08:42;;;;;;;9.48;5.63;;;11.90;97.00;;;;;;5061768;28;20252;-82
2024/03/18 11:11:16;;;;;;;8.70;6.53;;;11.90;96.80;;;;;;5064465;28;20222;-82
2024/03/18 11:13:45;;;;;;;6.75;4.13;;;11.70;96.90;;;;;;5055795;28;20257;-83
2024/03/18 11:16:13;;;;;;;10.30;5.95;;;11.60;97.00;;;;;;5062457;28;20203;-82
2024/03/18 11:18:44;;;;;;;11.77;6.13;;;11.60;96.90;;;;;;5060076;28;20223;-82
2024/03/18 11:21:18;;;;;;;10.43;7.07;;;11.70;97.00;;;;;;5067380;28;20212;-83
2024/03/18 11:23:55;;;;;;;11.45;5.78;;;11.80;97.10;;;;;;5062670;28;20191;-84
2024/03/18 11:26:25;;;;;;;8.00;5.40;;;11.80;97.10;;;;;;5063687;28;20192;-83
2024/03/18 11:29:03;;;;;;;12.82;5.90;;;12.00;96.90;;;;;;5064745;28;20224;-81
2024/03/18 11:31:35;;;;;;;10.70;6.00;;;12.00;96.80;;;;;;5058990;28;20205;-81
2024/03/18 11:34:07;;;;;;;8.75;6.00;;;11.80;96.70;;;;;;5064208;28;20284;-82
2024/03/18 11:36:38;;;;;;;10.20;7.07;;;11.70;96.70;;;;;;5065031;28;20197;-83
2024/03/18 11:39:07;;;;;;;13.45;6.85;;;11.70;97.10;;;;;;5065527;28;20251;-83
2024/03/18 11:41:35;;;;;;;9.77;6.10;;;11.70;97.10;;;;;;5067484;28;20208;-81
2024/03/18 11:44:03;;;;;;;10.70;7.18;;;11.60;97.20;;;;;;5059433;28;20211;-81
2024/03/18 11:46:30;;;;;;;7.35;6.20;;;11.40;97.20;;;;;;5064755;28;20223;-83
2024/03/18 11:49:05;;;;;;;13.68;6.85;;;11.40;97.30;;;;;;5055991;28;20273;-83
2024/03/18 11:51:32;;;;;;;12.73;7.43;;;11.30;97.50;;;;;;5057711;28;20204;-82
2024/03/18 11:54:05;;;;;;;13.05;6.32;;;11.30;97.70;;;;;;5062695;28;20213;-84
2024/03/18 11:56:34;;;;;;;10.55;6.22;;;11.30;97.70;;;;;;5067165;28;20208;-83
2024/03/18 11:59:03;;;;;;;11.15;7.10;;;11.30;97.80;;;;;;5060955;28;20296;-82
2024/03/18 12:01:31;;;;;;;10.95;5.60;;;11.40;97.80;;;;;;5059394;28;20214;-83
2024/03/18 12:04:00;;;;;;;8.73;6.32;;;11.50;97.50;;;;;;5071110;28;20250;-83
2024/03/18 12:06:29;;;;;;;13.18;5.55;;;11.50;97.30;;;;;;5070683;28;20236;-85
2024/03/18 12:08:56;;;;;;;8.63;5.97;;;11.50;97.40;;;;;;5062108;28;20268;-83
2024/03/18 12:11:24;;;;;;;12.10;6.50;;;11.60;97.40;;;;;;5064977;28;20211;-84
2024/03/18 12:13:51;;;;;;;10.75;6.43;;;11.70;97.60;;;;;;5075280;28;20227;-82
2024/03/18 12:16:20;;;;;;;7.82;5.90;;;11.80;97.70;;;;;;5057621;28;20238;-83
2024/03/18 12:18:48;;;;;;;10.20;7.25;;;12.00;97.20;;;;;;5066408;28;20213;-84
2024/03/18 12:21:15;;;;;;;8.73;6.32;;;12.20;97.20;;;;;;5058067;28;20195;-84
2024/03/18 12:29:22;;;;;;;10.75;5.25;;;12.10;97.00;;;;;;5060020;28;20223;-81
2024/03/18 12:31:54;;;;;;;12.55;6.35;;;12.30;97.00;;;;;;5068449;28;20261;-82
2024/03/18 12:37:07;;;;;;;11.48;6.22;;;12.30;96.70;;;;;;5064034;28;20694;-82
2024/03/18 12:39:34;;;;;;;10.88;6.75;;;12.20;96.90;;;;;;5062062;28;20210;-83
2024/03/18 12:42:02;;;;;;;10.35;7.75;;;12.20;97.00;;;;;;5068750;28;20199;-83
2024/03/18 12:44:29;;;;;;;14.63;7.70;;;12.20;97.20;;;;;;5070459;28;20192;-85
2024/03/18 12:46:58;;;;;;;11.60;7.63;;;12.30;97.00;;;;;;5067729;28;20216;-82
2024/03/18 12:49:25;;;;;;;11.57;7.05;;;12.40;97.10;;;;;;5066092;28;20273;-86
2024/03/18 12:51:52;;;;;;;8.85;6.25;;;12.10;97.20;;;;;;5056420;28;20212;-85
2024/03/18 12:54:19;;;;;;;12.60;6.70;;;11.90;97.60;;;;;;5073691;28;20232;-86
2024/03/18 12:56:47;;;;;;;12.48;6.47;;;12.00;97.80;;;;;;5074555;28;20224;-81
2024/03/18 12:59:14;;;;;;;13.35;7.53;;;12.00;97.70;;;;;;5069847;28;20235;-85
2024/03/18 13:01:41;;;;;;;8.95;6.20;;;12.10;97.60;;;;;;5072427;28;20275;-85
2024/03/18 13:04:10;;;;;;;8.85;6.53;;;12.10;97.60;;;;;;5074918;28;20200;-86
2024/03/18 13:06:38;;;;;;;10.27;6.90;;;12.00;97.80;;;;;;5076238;28;20208;-84